TAF Text Data
IDs:
Format:
Raw Decoded Include METAR

Data at: 1118 UTC 23 Jun 2021

KHIE 230855Z 2309/2406 24003KT P6SM FEW035 SCT060
  FM231500 29010KT P6SM FEW250
  FM240000 00000KT P6SM SKC